Time;durP1;ratioP1;P1;durP2;ratioP2;P2;SDS_P1;SDS_P2;PMS_P1;PMS_P2;Temp;Humidity;BMP_temperature;BMP_pressure;BME280_temperature;BME280_humidity;BME280_pressure;Samples;Min_cycle;Max_cycle;Signal;HPM_P1;HPM_P2
2023/04/20 00:01:27;;;;;;;4.97;1.90;;;;;;;;;;4994633;28;20415;-86
2023/04/20 00:03:55;;;;;;;6.63;2.20;;;;;;;;;;5005652;28;20441;-82
2023/04/20 00:06:31;;;;;;;6.43;2.37;;;;;;;;;;4993456;28;20791;-83
2023/04/20 00:08:59;;;;;;;8.75;2.00;;;;;;;;;;4994088;28;20429;-85
2023/04/20 00:11:28;;;;;;;7.80;2.10;;;;;;;;;;4996419;28;20918;-84
2023/04/20 00:14:01;;;;;;;6.68;2.00;;;;;;;;;;4994363;28;20434;-85
2023/04/20 00:16:34;;;;;;;4.65;1.80;;;;;;;;;;5000977;28;20917;-85
2023/04/20 00:19:01;;;;;;;9.55;2.17;;;;;;;;;;4994480;28;20411;-86
2023/04/20 00:21:36;;;;;;;7.13;2.20;;;;;;;;;;4992922;28;20420;-87
2023/04/20 00:24:03;;;;;;;7.93;2.60;;;;;;;;;;5008114;28;20431;-88
2023/04/20 00:26:36;;;;;;;5.45;2.10;;;;;;;;;;4992986;28;20994;-89
2023/04/20 00:29:04;;;;;;;6.95;2.47;;;;;;;;;;5009921;28;20761;-89
2023/04/20 00:31:32;;;;;;;7.00;2.30;;;;;;;;;;4994587;28;20425;-88
2023/04/20 00:34:00;;;;;;;8.02;2.40;;;;;;;;;;5009554;28;20411;-86
2023/04/20 00:36:28;;;;;;;6.47;2.53;;;;;;;;;;5010050;28;20441;-85
2023/04/20 00:39:03;;;;;;;7.20;2.35;;;;;;;;;;4993164;28;20441;-86
2023/04/20 00:41:31;;;;;;;6.22;2.30;;;;;;;;;;4986471;28;20420;-83
2023/04/20 00:43:59;;;;;;;6.20;2.10;;;;;;;;;;4992168;28;20422;-84
2023/04/20 00:46:27;;;;;;;5.90;2.67;;;;;;;;;;4990981;28;20471;-86
2023/04/20 00:49:00;;;;;;;7.47;2.38;;;;;;;;;;4992016;28;20433;-86
2023/04/20 00:51:30;;;;;;;6.90;2.55;;;;;;;;;;5010390;28;20414;-85
2023/04/20 00:53:59;;;;;;;6.50;2.33;;;;;;;;;;5001102;28;20434;-84
2023/04/20 00:56:28;;;;;;;7.63;2.77;;;;;;;;;;4995491;28;20417;-86
2023/04/20 00:59:01;;;;;;;7.70;2.55;;;;;;;;;;4993525;28;20422;-85
2023/04/20 01:01:34;;;;;;;7.40;2.47;;;;;;;;;;5010507;28;20429;-86
2023/04/20 01:04:07;;;;;;;8.52;2.50;;;;;;;;;;4991429;28;20426;-86
2023/04/20 01:06:35;;;;;;;7.03;2.40;;;;;;;;;;4998201;28;20419;-86
2023/04/20 01:09:03;;;;;;;8.95;2.88;;;;;;;;;;4991045;28;20437;-87
2023/04/20 01:11:32;;;;;;;5.90;2.60;;;;;;;;;;4992067;28;21016;-86
2023/04/20 01:14:00;;;;;;;9.38;2.65;;;;;;;;;;4990212;28;20413;-86
2023/04/20 01:16:33;;;;;;;8.30;2.53;;;;;;;;;;5011812;28;20638;-86
2023/04/20 01:19:06;;;;;;;9.55;2.80;;;;;;;;;;4990407;28;20437;-86
2023/04/20 01:21:34;;;;;;;7.13;2.40;;;;;;;;;;4991160;28;20422;-86
2023/04/20 01:24:03;;;;;;;8.45;2.40;;;;;;;;;;4990344;28;20914;-86
2023/04/20 01:26:32;;;;;;;6.78;2.53;;;;;;;;;;4991830;28;20419;-84
2023/04/20 01:29:07;;;;;;;7.43;2.50;;;;;;;;;;5007332;28;20503;-86
2023/04/20 01:31:35;;;;;;;8.55;2.50;;;;;;;;;;4988504;28;20414;-86
2023/04/20 01:34:08;;;;;;;7.75;2.83;;;;;;;;;;4988400;28;20422;-86
2023/04/20 01:36:36;;;;;;;7.30;2.75;;;;;;;;;;4991881;28;20895;-86
2023/04/20 01:39:05;;;;;;;8.48;2.70;;;;;;;;;;5003247;28;20426;-86
2023/04/20 01:41:33;;;;;;;6.20;2.55;;;;;;;;;;5003326;28;20429;-86
2023/04/20 01:44:01;;;;;;;8.45;2.60;;;;;;;;;;4991517;28;20430;-86
2023/04/20 01:46:36;;;;;;;8.73;2.58;;;;;;;;;;4992919;28;20410;-86
2023/04/20 01:49:09;;;;;;;7.15;2.63;;;;;;;;;;4997697;28;20429;-86
2023/04/20 01:51:42;;;;;;;7.17;2.80;;;;;;;;;;4993202;28;20425;-86
2023/04/20 01:54:16;;;;;;;9.20;3.00;;;;;;;;;;4993065;28;20418;-86
2023/04/20 01:56:44;;;;;;;8.90;2.95;;;;;;;;;;4976776;28;20428;-86
2023/04/20 01:59:17;;;;;;;8.48;2.97;;;;;;;;;;5005088;28;20426;-86
2023/04/20 02:01:44;;;;;;;8.75;2.75;;;;;;;;;;5007062;28;20430;-86
2023/04/20 02:04:12;;;;;;;9.93;2.75;;;;;;;;;;4990614;28;20762;-86
2023/04/20 02:06:40;;;;;;;7.93;3.30;;;;;;;;;;4992450;28;20904;-86
2023/04/20 02:09:09;;;;;;;7.68;2.97;;;;;;;;;;5006354;28;20422;-85
2023/04/20 02:11:38;;;;;;;8.27;2.90;;;;;;;;;;4991408;28;20421;-87
2023/04/20 02:14:06;;;;;;;9.10;3.00;;;;;;;;;;5010788;28;20426;-86
2023/04/20 02:16:39;;;;;;;8.60;3.00;;;;;;;;;;4993852;28;20418;-85
2023/04/20 02:19:07;;;;;;;9.70;3.00;;;;;;;;;;5009470;28;20438;-86
2023/04/20 02:21:39;;;;;;;7.65;2.63;;;;;;;;;;4997399;28;20417;-87
2023/04/20 02:24:07;;;;;;;8.35;2.80;;;;;;;;;;4986066;28;20428;-85
2023/04/20 02:26:35;;;;;;;9.13;2.92;;;;;;;;;;4993101;28;20425;-84
2023/04/20 02:29:10;;;;;;;9.38;2.63;;;;;;;;;;4993433;28;20428;-85
2023/04/20 02:31:37;;;;;;;6.93;2.70;;;;;;;;;;4990232;28;21332;-85
2023/04/20 02:34:10;;;;;;;12.40;2.60;;;;;;;;;;4993387;28;20422;-85
2023/04/20 02:36:38;;;;;;;9.90;2.63;;;;;;;;;;4998108;28;20441;-84
2023/04/20 02:39:06;;;;;;;10.13;2.58;;;;;;;;;;5008017;28;20422;-86
2023/04/20 02:41:38;;;;;;;6.35;2.50;;;;;;;;;;5011299;28;20426;-85
2023/04/20 02:44:13;;;;;;;11.43;2.75;;;;;;;;;;4993581;28;20423;-85
2023/04/20 02:46:41;;;;;;;6.43;2.80;;;;;;;;;;5009900;28;20420;-86
2023/04/20 02:49:10;;;;;;;10.98;2.88;;;;;;;;;;4994989;28;20411;-86
2023/04/20 02:51:42;;;;;;;7.40;2.60;;;;;;;;;;4992625;28;20425;-86
2023/04/20 02:54:14;;;;;;;9.88;2.70;;;;;;;;;;4993191;28;20426;-86
2023/04/20 02:56:43;;;;;;;6.50;2.50;;;;;;;;;;4990532;28;20411;-85
2023/04/20 02:59:17;;;;;;;8.15;2.80;;;;;;;;;;5015233;28;20453;-86
2023/04/20 03:01:53;;;;;;;8.20;2.70;;;;;;;;;;4996096;28;20437;-86
2023/04/20 03:04:26;;;;;;;7.90;2.80;;;;;;;;;;4993265;28;20441;-86
2023/04/20 03:07:20;;;;;;;7.47;2.70;;;;;;;;;;5008045;28;20426;-87
2023/04/20 03:09:53;;;;;;;9.25;3.00;;;;;;;;;;5008459;28;20434;-86
2023/04/20 03:12:25;;;;;;;7.93;2.60;;;;;;;;;;4993804;28;20419;-86
2023/04/20 03:15:14;;;;;;;10.25;2.97;;;;;;;;;;4994281;28;20422;-86
2023/04/20 03:18:02;;;;;;;10.45;2.90;;;;;;;;;;4993831;28;20426;-86
2023/04/20 03:20:30;;;;;;;9.17;2.80;;;;;;;;;;4994688;28;20526;-87
2023/04/20 03:23:03;;;;;;;9.75;3.10;;;;;;;;;;4993022;28;20426;-87
2023/04/20 03:25:33;;;;;;;8.82;2.75;;;;;;;;;;4998328;28;20437;-86
2023/04/20 03:28:13;;;;;;;9.20;3.30;;;;;;;;;;5008380;28;20903;-86
2023/04/20 03:30:47;;;;;;;8.95;3.08;;;;;;;;;;5009208;28;20441;-85
2023/04/20 03:33:16;;;;;;;9.40;2.80;;;;;;;;;;4992205;28;20442;-85
2023/04/20 03:35:44;;;;;;;9.93;3.30;;;;;;;;;;5008608;28;20429;-85
2023/04/20 03:38:12;;;;;;;9.20;3.03;;;;;;;;;;5004347;28;20450;-85
2023/04/20 03:40:40;;;;;;;8.32;3.40;;;;;;;;;;4998522;28;20790;-84
2023/04/20 03:43:12;;;;;;;8.45;3.03;;;;;;;;;;4993972;28;20429;-86
2023/04/20 03:45:45;;;;;;;10.15;3.15;;;;;;;;;;4983759;28;20435;-85
2023/04/20 03:48:20;;;;;;;9.75;3.58;;;;;;;;;;5009336;28;20430;-85
2023/04/20 03:50:53;;;;;;;8.45;3.60;;;;;;;;;;5007540;28;20430;-85
2023/04/20 03:53:21;;;;;;;11.57;3.67;;;;;;;;;;5008072;28;20426;-85
2023/04/20 03:55:49;;;;;;;10.05;3.55;;;;;;;;;;4993774;28;20427;-85
2023/04/20 03:58:20;;;;;;;9.15;3.30;;;;;;;;;;5007085;28;20415;-85
2023/04/20 04:01:06;;;;;;;8.90;3.13;;;;;;;;;;5011509;28;20422;-85
2023/04/20 04:03:38;;;;;;;11.70;3.75;;;;;;;;;;5012858;28;20439;-85
2023/04/20 04:06:07;;;;;;;9.60;3.30;;;;;;;;;;4993776;28;20431;-84
2023/04/20 04:08:40;;;;;;;8.67;3.40;;;;;;;;;;5005080;28;20993;-83
2023/04/20 04:11:13;;;;;;;9.32;3.40;;;;;;;;;;5001200;28;20432;-83
2023/04/20 04:13:46;;;;;;;12.15;3.65;;;;;;;;;;4987173;28;20426;-83
2023/04/20 04:16:19;;;;;;;9.05;3.40;;;;;;;;;;5007298;28;20425;-83
2023/04/20 04:18:49;;;;;;;11.02;3.42;;;;;;;;;;4988211;28;20429;-83
2023/04/20 04:21:22;;;;;;;12.95;4.00;;;;;;;;;;4978380;28;20435;-83
2023/04/20 04:24:01;;;;;;;8.02;3.35;;;;;;;;;;4991006;28;20456;-83
2023/04/20 04:26:44;;;;;;;11.50;3.70;;;;;;;;;;4990895;28;20439;-82
2023/04/20 04:29:18;;;;;;;8.73;3.30;;;;;;;;;;4990940;28;20760;-82
2023/04/20 04:31:46;;;;;;;13.32;3.60;;;;;;;;;;4990387;28;20907;-83
2023/04/20 04:34:19;;;;;;;10.48;3.50;;;;;;;;;;4990090;28;20422;-83
2023/04/20 04:36:52;;;;;;;8.43;3.35;;;;;;;;;;5006184;28;20426;-82
2023/04/20 04:39:28;;;;;;;10.82;3.60;;;;;;;;;;4997922;28;20418;-82
2023/04/20 04:42:09;;;;;;;10.80;3.70;;;;;;;;;;5006947;28;20418;-82
2023/04/20 04:44:41;;;;;;;9.02;3.60;;;;;;;;;;5006318;28;20426;-82
2023/04/20 04:47:13;;;;;;;9.93;3.70;;;;;;;;;;5006180;28;20422;-82
2023/04/20 04:49:44;;;;;;;11.15;3.72;;;;;;;;;;4992296;28;20421;-82
2023/04/20 04:52:17;;;;;;;10.55;3.75;;;;;;;;;;4989472;28;20910;-83
2023/04/20 04:54:44;;;;;;;12.43;4.35;;;;;;;;;;4991075;28;20437;-82
2023/04/20 04:57:13;;;;;;;12.40;4.18;;;;;;;;;;4992630;28;20736;-82
2023/04/20 04:59:41;;;;;;;11.85;4.03;;;;;;;;;;5001381;28;20425;-83
2023/04/20 05:02:14;;;;;;;9.80;3.90;;;;;;;;;;4986834;28;20444;-82
2023/04/20 05:04:48;;;;;;;11.07;4.28;;;;;;;;;;5003915;28;20922;-82
2023/04/20 05:07:16;;;;;;;11.13;3.92;;;;;;;;;;5004195;28;20440;-84
2023/04/20 05:09:43;;;;;;;10.25;3.88;;;;;;;;;;5005686;28;20427;-82
2023/04/20 05:12:11;;;;;;;10.70;4.20;;;;;;;;;;4989254;28;20434;-83
2023/04/20 05:14:44;;;;;;;11.18;4.20;;;;;;;;;;4989697;28;21322;-82
2023/04/20 05:17:12;;;;;;;12.27;4.15;;;;;;;;;;4992164;28;20433;-83
2023/04/20 05:19:39;;;;;;;12.43;4.38;;;;;;;;;;4991946;28;20425;-82
2023/04/20 05:22:13;;;;;;;11.38;4.30;;;;;;;;;;4990687;28;20429;-82
2023/04/20 05:24:46;;;;;;;14.15;4.45;;;;;;;;;;4990599;28;20422;-82
2023/04/20 05:27:14;;;;;;;11.55;4.10;;;;;;;;;;4988743;28;21285;-82
2023/04/20 05:29:42;;;;;;;9.43;4.22;;;;;;;;;;4991450;28;20426;-82
2023/04/20 05:32:10;;;;;;;10.63;4.15;;;;;;;;;;4992431;28;20422;-82
2023/04/20 05:34:42;;;;;;;11.27;4.22;;;;;;;;;;4982899;28;20427;-82
2023/04/20 05:37:10;;;;;;;12.30;3.95;;;;;;;;;;5001463;28;20426;-82
2023/04/20 05:39:45;;;;;;;10.90;4.18;;;;;;;;;;5004610;28;20915;-82
2023/04/20 05:42:18;;;;;;;12.43;4.60;;;;;;;;;;4990323;28;20430;-83
2023/04/20 05:44:50;;;;;;;15.00;4.65;;;;;;;;;;5000384;28;20430;-82
2023/04/20 05:47:23;;;;;;;12.70;5.00;;;;;;;;;;4991620;28;20441;-82
2023/04/20 05:49:51;;;;;;;11.60;4.90;;;;;;;;;;5004272;28;20437;-82
2023/04/20 05:52:18;;;;;;;10.68;4.30;;;;;;;;;;4989785;28;20427;-82
2023/04/20 05:54:53;;;;;;;11.50;4.55;;;;;;;;;;4988510;28;20437;-82
2023/04/20 05:57:21;;;;;;;12.82;4.68;;;;;;;;;;4989984;28;20414;-82
2023/04/20 05:59:55;;;;;;;13.95;4.60;;;;;;;;;;4981777;28;20429;-82
2023/04/20 06:02:24;;;;;;;10.00;4.43;;;;;;;;;;4990173;28;21139;-83
2023/04/20 06:04:52;;;;;;;11.85;4.85;;;;;;;;;;4991327;28;20418;-82
2023/04/20 06:07:20;;;;;;;12.18;4.60;;;;;;;;;;4989746;28;20927;-83
2023/04/20 06:09:48;;;;;;;11.93;4.72;;;;;;;;;;4994203;28;20429;-82
2023/04/20 06:12:22;;;;;;;11.10;4.97;;;;;;;;;;4995056;28;20446;-82
2023/04/20 06:14:50;;;;;;;12.38;4.38;;;;;;;;;;5001433;28;20538;-82
2023/04/20 06:17:22;;;;;;;14.48;4.80;;;;;;;;;;4992839;28;20457;-83
2023/04/20 06:19:50;;;;;;;9.75;4.40;;;;;;;;;;4991872;28;20442;-82
2023/04/20 06:22:18;;;;;;;11.05;4.57;;;;;;;;;;5005353;28;20435;-83
2023/04/20 06:24:46;;;;;;;12.47;5.00;;;;;;;;;;4992625;28;20441;-83
2023/04/20 06:27:19;;;;;;;11.75;4.35;;;;;;;;;;5002073;28;20440;-82
2023/04/20 06:29:49;;;;;;;14.77;4.82;;;;;;;;;;5008926;28;20430;-82
2023/04/20 06:32:17;;;;;;;14.40;5.25;;;;;;;;;;5001925;28;20441;-82
2023/04/20 06:34:46;;;;;;;14.05;5.25;;;;;;;;;;4992083;28;20430;-82
2023/04/20 06:37:14;;;;;;;14.23;4.87;;;;;;;;;;4993479;28;20413;-81
2023/04/20 06:39:42;;;;;;;14.00;4.95;;;;;;;;;;4993047;28;20430;-82
2023/04/20 06:42:10;;;;;;;13.52;5.20;;;;;;;;;;4992127;28;21059;-82
2023/04/20 06:44:40;;;;;;;14.02;5.28;;;;;;;;;;4992230;28;20780;-83
2023/04/20 06:47:14;;;;;;;15.63;5.47;;;;;;;;;;4992915;28;20457;-82
2023/04/20 06:49:46;;;;;;;13.68;5.00;;;;;;;;;;4991772;28;20432;-82
2023/04/20 06:52:14;;;;;;;12.73;5.00;;;;;;;;;;4992306;28;20438;-82
2023/04/20 06:54:42;;;;;;;13.25;4.78;;;;;;;;;;4992771;28;20420;-81
2023/04/20 06:57:15;;;;;;;12.23;4.78;;;;;;;;;;4992113;28;20922;-80
2023/04/20 06:59:43;;;;;;;17.70;5.60;;;;;;;;;;4990436;28;20434;-83
2023/04/20 07:02:10;;;;;;;12.43;4.80;;;;;;;;;;4994025;28;20441;-82
2023/04/20 07:04:39;;;;;;;11.93;5.00;;;;;;;;;;5006776;28;20446;-82
2023/04/20 07:07:08;;;;;;;11.88;4.65;;;;;;;;;;5010422;28;20427;-83
2023/04/20 07:09:35;;;;;;;14.85;5.10;;;;;;;;;;5006521;28;20814;-83
2023/04/20 07:12:03;;;;;;;13.05;5.18;;;;;;;;;;5005881;28;20438;-84
2023/04/20 07:14:31;;;;;;;13.60;5.38;;;;;;;;;;4991226;28;20430;-80
2023/04/20 07:16:59;;;;;;;13.77;5.10;;;;;;;;;;4991311;28;20528;-82
2023/04/20 07:19:27;;;;;;;11.18;5.05;;;;;;;;;;4990888;28;20430;-85
2023/04/20 07:22:01;;;;;;;12.88;4.75;;;;;;;;;;4991813;28;20434;-83
2023/04/20 07:24:34;;;;;;;14.23;5.05;;;;;;;;;;4991816;28;20449;-84
2023/04/20 07:27:01;;;;;;;11.18;4.80;;;;;;;;;;4992002;28;20447;-82
2023/04/20 07:29:34;;;;;;;14.05;5.07;;;;;;;;;;4996018;28;20463;-82
2023/04/20 07:32:02;;;;;;;13.07;5.35;;;;;;;;;;4986273;28;20444;-83
2023/04/20 07:34:30;;;;;;;12.57;5.28;;;;;;;;;;4985994;28;21309;-83
2023/04/20 07:36:57;;;;;;;13.77;5.07;;;;;;;;;;4977948;28;20438;-83
2023/04/20 07:39:32;;;;;;;11.95;5.10;;;;;;;;;;4977913;28;20442;-83
2023/04/20 07:42:02;;;;;;;14.90;5.47;;;;;;;;;;4987439;28;20530;-84
2023/04/20 07:44:30;;;;;;;15.68;5.53;;;;;;;;;;4970696;28;20917;-83
2023/04/20 07:46:57;;;;;;;12.77;5.28;;;;;;;;;;4988859;28;20444;-85
2023/04/20 07:49:25;;;;;;;14.40;4.95;;;;;;;;;;4993625;28;20442;-84
2023/04/20 07:51:53;;;;;;;14.27;5.10;;;;;;;;;;4992534;28;20450;-84
2023/04/20 07:54:26;;;;;;;12.45;4.90;;;;;;;;;;4990483;28;20936;-83
2023/04/20 07:56:55;;;;;;;14.30;5.38;;;;;;;;;;4983324;28;20449;-85
2023/04/20 07:59:23;;;;;;;15.13;5.18;;;;;;;;;;4991967;28;20438;-84
2023/04/20 08:01:51;;;;;;;12.95;5.43;;;;;;;;;;4996919;28;20467;-85
2023/04/20 08:04:19;;;;;;;15.85;5.45;;;;;;;;;;4987323;28;21167;-84
2023/04/20 08:06:46;;;;;;;11.32;5.15;;;;;;;;;;4979791;28;20426;-85
2023/04/20 08:09:14;;;;;;;13.50;5.40;;;;;;;;;;4975479;28;20786;-84
2023/04/20 08:11:48;;;;;;;17.60;5.88;;;;;;;;;;4976274;28;21286;-83
2023/04/20 08:14:17;;;;;;;14.32;5.55;;;;;;;;;;4990771;28;20424;-84
2023/04/20 08:16:46;;;;;;;14.52;5.15;;;;;;;;;;4992444;28;20485;-85
2023/04/20 08:19:14;;;;;;;13.90;5.85;;;;;;;;;;4992549;28;20445;-85
2023/04/20 08:21:42;;;;;;;14.82;5.63;;;;;;;;;;4982925;28;20432;-85
2023/04/20 08:24:11;;;;;;;15.80;5.68;;;;;;;;;;4992464;28;20436;-84
2023/04/20 08:26:38;;;;;;;14.18;5.80;;;;;;;;;;4998352;28;20446;-85
2023/04/20 08:29:06;;;;;;;14.32;5.30;;;;;;;;;;4982831;28;20428;-86
2023/04/20 08:31:36;;;;;;;14.40;5.82;;;;;;;;;;4976759;28;20445;-84
2023/04/20 08:34:04;;;;;;;12.93;5.68;;;;;;;;;;4972597;28;21492;-85
2023/04/20 08:36:32;;;;;;;13.48;5.38;;;;;;;;;;4988760;28;20452;-85
2023/04/20 08:39:06;;;;;;;15.20;5.35;;;;;;;;;;4980056;28;20811;-86
2023/04/20 08:41:39;;;;;;;12.57;5.68;;;;;;;;;;4989668;28;20433;-85
2023/04/20 08:44:12;;;;;;;13.48;5.68;;;;;;;;;;4988177;28;20438;-85
2023/04/20 08:46:47;;;;;;;13.30;5.55;;;;;;;;;;4992273;28;20433;-86
2023/04/20 08:49:15;;;;;;;17.67;5.68;;;;;;;;;;4989699;28;20430;-85
2023/04/20 08:51:43;;;;;;;13.88;5.45;;;;;;;;;;4977327;28;21153;-85
2023/04/20 08:54:17;;;;;;;14.80;6.32;;;;;;;;;;4975337;28;20444;-86
2023/04/20 08:56:50;;;;;;;16.50;6.00;;;;;;;;;;4993024;28;20437;-86
2023/04/20 08:59:22;;;;;;;14.30;5.50;;;;;;;;;;4989658;28;20442;-86
2023/04/20 09:01:52;;;;;;;13.18;5.72;;;;;;;;;;4997484;28;20442;-86
2023/04/20 09:04:20;;;;;;;13.85;5.75;;;;;;;;;;4978670;28;20409;-86
2023/04/20 09:06:49;;;;;;;14.85;5.53;;;;;;;;;;4992618;28;20472;-86
2023/04/20 09:09:18;;;;;;;14.13;5.90;;;;;;;;;;4984165;28;20492;-85
2023/04/20 09:11:46;;;;;;;15.18;6.05;;;;;;;;;;4979143;28;20426;-86
2023/04/20 09:14:15;;;;;;;12.27;5.75;;;;;;;;;;4980822;28;20432;-86
2023/04/20 09:16:49;;;;;;;13.50;5.93;;;;;;;;;;4977515;28;20436;-87
2023/04/20 09:19:23;;;;;;;16.33;6.40;;;;;;;;;;4985454;28;20986;-86
2023/04/20 09:21:57;;;;;;;17.05;6.60;;;;;;;;;;4988854;28;20928;-86
2023/04/20 09:24:31;;;;;;;15.32;6.03;;;;;;;;;;4993402;28;20447;-86
2023/04/20 09:26:59;;;;;;;14.80;6.23;;;;;;;;;;4987491;28;21198;-86
2023/04/20 09:29:26;;;;;;;15.43;6.30;;;;;;;;;;4951890;28;20932;-86
2023/04/20 09:31:54;;;;;;;17.17;6.07;;;;;;;;;;4983053;28;20624;-86
2023/04/20 09:34:24;;;;;;;15.48;6.47;;;;;;;;;;4978391;28;20437;-86
2023/04/20 09:36:53;;;;;;;16.88;6.32;;;;;;;;;;4976778;28;20429;-86
2023/04/20 09:39:22;;;;;;;14.15;6.20;;;;;;;;;;4984868;28;20441;-86
2023/04/20 09:42:03;;;;;;;17.60;6.20;;;;;;;;;;4995942;28;20422;-86
2023/04/20 09:44:32;;;;;;;15.15;6.43;;;;;;;;;;5002154;28;20787;-85
2023/04/20 09:47:05;;;;;;;18.88;6.93;;;;;;;;;;4986034;28;21245;-86
2023/04/20 09:49:34;;;;;;;15.55;6.63;;;;;;;;;;4998838;28;20432;-86
2023/04/20 09:52:03;;;;;;;18.08;7.07;;;;;;;;;;4986754;28;20431;-86
2023/04/20 09:54:31;;;;;;;12.85;6.30;;;;;;;;;;4978963;28;21486;-84
2023/04/20 09:57:00;;;;;;;16.73;6.57;;;;;;;;;;4984330;28;20783;-86
2023/04/20 09:59:28;;;;;;;14.80;6.43;;;;;;;;;;4992337;28;20603;-85
2023/04/20 10:01:56;;;;;;;15.50;7.10;;;;;;;;;;4989996;28;20445;-86
2023/04/20 10:04:24;;;;;;;15.68;6.40;;;;;;;;;;4990971;28;20965;-86
2023/04/20 10:07:02;;;;;;;14.75;6.57;;;;;;;;;;4981427;28;20436;-85
2023/04/20 10:09:32;;;;;;;16.00;6.55;;;;;;;;;;4980509;28;20445;-85
2023/04/20 10:12:05;;;;;;;19.17;6.25;;;;;;;;;;4995386;28;20461;-85
2023/04/20 10:14:34;;;;;;;15.20;6.00;;;;;;;;;;4976426;28;20426;-85
2023/04/20 10:17:03;;;;;;;14.73;7.00;;;;;;;;;;4993525;28;20992;-85
2023/04/20 10:19:38;;;;;;;17.48;6.30;;;;;;;;;;4974431;28;20430;-85
2023/04/20 10:22:08;;;;;;;15.33;6.50;;;;;;;;;;4973856;28;20957;-86
2023/04/20 10:24:37;;;;;;;15.90;6.20;;;;;;;;;;4975673;28;20440;-85
2023/04/20 10:27:15;;;;;;;13.77;5.90;;;;;;;;;;4990687;28;20435;-85
2023/04/20 10:29:43;;;;;;;17.17;6.20;;;;;;;;;;4972223;28;20438;-85
2023/04/20 10:32:21;;;;;;;13.50;5.60;;;;;;;;;;4990939;28;20437;-85
2023/04/20 10:34:48;;;;;;;16.00;6.65;;;;;;;;;;4981319;28;20446;-85
2023/04/20 10:37:18;;;;;;;13.88;6.50;;;;;;;;;;4983023;28;20445;-86
2023/04/20 10:39:50;;;;;;;15.47;6.37;;;;;;;;;;4996035;28;20433;-86
2023/04/20 10:42:25;;;;;;;15.40;6.50;;;;;;;;;;4993314;28;20445;-85
2023/04/20 10:44:53;;;;;;;14.38;6.45;;;;;;;;;;4983228;28;20643;-86
2023/04/20 10:47:27;;;;;;;15.00;6.05;;;;;;;;;;4997262;28;20449;-87
2023/04/20 10:50:06;;;;;;;14.60;6.72;;;;;;;;;;4995674;28;20430;-86
2023/04/20 10:52:42;;;;;;;19.43;7.20;;;;;;;;;;4994461;28;20439;-86
2023/04/20 10:55:18;;;;;;;16.73;6.90;;;;;;;;;;4985623;28;20938;-86
2023/04/20 10:57:46;;;;;;;14.00;6.38;;;;;;;;;;4985171;28;20438;-86
2023/04/20 11:00:15;;;;;;;15.55;6.65;;;;;;;;;;4989823;28;21161;-87
2023/04/20 11:02:49;;;;;;;13.52;6.70;;;;;;;;;;4989737;28;20435;-85
2023/04/20 11:05:17;;;;;;;12.88;6.60;;;;;;;;;;4975699;28;20435;-87
2023/04/20 11:07:53;;;;;;;14.63;6.70;;;;;;;;;;4979191;28;20426;-86
2023/04/20 11:10:38;;;;;;;15.10;6.80;;;;;;;;;;4976022;28;20435;-84
2023/04/20 11:13:19;;;;;;;12.70;6.72;;;;;;;;;;4988046;28;20438;-86
2023/04/20 11:15:47;;;;;;;15.93;6.90;;;;;;;;;;4999203;28;21791;-83
2023/04/20 11:18:20;;;;;;;13.85;6.72;;;;;;;;;;4979348;28;20453;-85
2023/04/20 11:20:51;;;;;;;15.93;6.80;;;;;;;;;;4994471;28;20422;-87
2023/04/20 11:23:21;;;;;;;13.50;6.88;;;;;;;;;;5004560;28;20430;-86
2023/04/20 11:25:55;;;;;;;17.88;7.25;;;;;;;;;;4989368;28;20458;-85
2023/04/20 11:28:33;;;;;;;17.45;7.60;;;;;;;;;;4962517;28;21756;-83
2023/04/20 11:31:01;;;;;;;23.92;11.40;;;;;;;;;;4996743;28;20434;-85
2023/04/20 11:33:33;;;;;;;18.45;8.88;;;;;;;;;;4997965;28;20436;-83
2023/04/20 11:36:01;;;;;;;18.00;7.25;;;;;;;;;;4995643;28;20440;-85
2023/04/20 11:38:31;;;;;;;13.37;7.30;;;;;;;;;;5001444;28;20540;-84
2023/04/20 11:41:03;;;;;;;16.85;6.85;;;;;;;;;;5000112;28;20409;-85
2023/04/20 11:43:31;;;;;;;17.20;7.85;;;;;;;;;;4983479;28;21262;-84
2023/04/20 11:46:12;;;;;;;13.60;6.90;;;;;;;;;;4995307;28;20439;-83
2023/04/20 11:48:40;;;;;;;19.33;8.55;;;;;;;;;;4992265;28;20444;-83
2023/04/20 11:51:12;;;;;;;17.92;7.90;;;;;;;;;;4976898;28;20436;-83
2023/04/20 11:53:42;;;;;;;14.68;7.25;;;;;;;;;;5000551;28;20963;-82
2023/04/20 11:56:15;;;;;;;17.85;7.30;;;;;;;;;;4991903;28;20435;-83
2023/04/20 11:58:48;;;;;;;17.67;7.28;;;;;;;;;;4985475;28;20429;-82
2023/04/20 12:01:21;;;;;;;21.47;7.80;;;;;;;;;;4975869;28;21951;-82
2023/04/20 12:03:48;;;;;;;18.30;7.13;;;;;;;;;;4974169;28;20441;-82
2023/04/20 12:06:21;;;;;;;16.55;7.13;;;;;;;;;;4977734;28;20437;-83
2023/04/20 12:08:56;;;;;;;14.68;7.35;;;;;;;;;;4989374;28;20442;-82
2023/04/20 12:11:33;;;;;;;15.20;7.15;;;;;;;;;;4969981;28;20434;-82
2023/04/20 12:14:04;;;;;;;18.70;7.53;;;;;;;;;;4987924;28;20425;-84
2023/04/20 12:16:37;;;;;;;15.50;7.50;;;;;;;;;;4974672;28;20416;-84
2023/04/20 12:19:04;;;;;;;15.38;7.20;;;;;;;;;;4992074;28;20440;-83
2023/04/20 12:21:32;;;;;;;17.55;7.40;;;;;;;;;;4977640;28;20441;-81
2023/04/20 12:24:01;;;;;;;17.17;7.43;;;;;;;;;;4972905;28;20415;-81
2023/04/20 12:26:35;;;;;;;15.15;7.50;;;;;;;;;;4974330;28;20988;-82
2023/04/20 12:29:02;;;;;;;18.00;7.27;;;;;;;;;;4946404;28;20447;-82
2023/04/20 12:31:30;;;;;;;17.97;7.63;;;;;;;;;;4965831;28;20438;-83
2023/04/20 12:33:58;;;;;;;15.60;7.57;;;;;;;;;;4970362;28;20424;-82
2023/04/20 12:36:33;;;;;;;15.53;7.57;;;;;;;;;;4970065;28;20502;-82
2023/04/20 12:39:03;;;;;;;17.63;7.28;;;;;;;;;;4977511;28;20442;-82
2023/04/20 12:41:36;;;;;;;16.23;7.38;;;;;;;;;;4972966;28;20496;-81
2023/04/20 12:44:04;;;;;;;17.02;7.88;;;;;;;;;;4971094;28;20445;-82
2023/04/20 12:46:31;;;;;;;14.05;8.00;;;;;;;;;;4984134;28;20426;-83
2023/04/20 12:48:59;;;;;;;15.98;7.20;;;;;;;;;;4974826;28;20425;-83
2023/04/20 12:51:27;;;;;;;16.63;7.53;;;;;;;;;;4981815;28;20449;-81
2023/04/20 12:53:55;;;;;;;18.73;7.60;;;;;;;;;;4970495;28;20413;-83
2023/04/20 12:56:24;;;;;;;16.92;7.25;;;;;;;;;;4986828;28;20443;-83
2023/04/20 12:58:52;;;;;;;17.98;8.02;;;;;;;;;;4985271;28;20438;-83
2023/04/20 13:01:25;;;;;;;16.00;7.30;;;;;;;;;;4970901;28;20424;-82
2023/04/20 13:03:53;;;;;;;15.90;7.90;;;;;;;;;;4977565;28;20724;-84
2023/04/20 13:06:20;;;;;;;17.40;7.70;;;;;;;;;;4981440;28;20440;-84
2023/04/20 13:08:49;;;;;;;14.47;7.53;;;;;;;;;;4966551;28;20441;-82
2023/04/20 13:11:17;;;;;;;17.45;8.02;;;;;;;;;;4974699;28;20442;-83
2023/04/20 13:13:46;;;;;;;17.03;7.80;;;;;;;;;;4975577;28;20441;-84
2023/04/20 13:16:14;;;;;;;16.50;8.10;;;;;;;;;;4991942;28;20440;-81
2023/04/20 13:18:42;;;;;;;15.88;8.00;;;;;;;;;;4977602;28;20430;-83
2023/04/20 13:21:10;;;;;;;16.00;7.72;;;;;;;;;;4990983;28;20427;-83
2023/04/20 13:23:38;;;;;;;17.58;8.02;;;;;;;;;;4976273;28;20486;-83
2023/04/20 13:26:07;;;;;;;18.38;7.80;;;;;;;;;;4973081;28;20406;-82
2023/04/20 13:28:39;;;;;;;18.00;7.70;;;;;;;;;;4947303;28;20581;-82
2023/04/20 13:31:14;;;;;;;16.60;8.02;;;;;;;;;;4978289;28;20983;-82
2023/04/20 13:33:41;;;;;;;16.38;7.75;;;;;;;;;;4970015;28;20509;-83
2023/04/20 13:36:14;;;;;;;18.60;8.07;;;;;;;;;;4982261;28;20439;-83
2023/04/20 13:38:42;;;;;;;17.30;8.23;;;;;;;;;;4990789;28;20449;-82
2023/04/20 13:41:15;;;;;;;16.55;7.78;;;;;;;;;;4973097;28;22481;-84
2023/04/20 13:43:43;;;;;;;17.60;8.23;;;;;;;;;;4968915;28;20432;-83
2023/04/20 13:46:18;;;;;;;21.75;8.65;;;;;;;;;;4969314;28;20442;-84
2023/04/20 13:48:47;;;;;;;20.15;8.77;;;;;;;;;;4987511;28;20485;-83
2023/04/20 13:51:15;;;;;;;17.58;8.35;;;;;;;;;;4991434;28;20441;-84
2023/04/20 13:53:42;;;;;;;16.80;8.17;;;;;;;;;;4971053;28;20445;-83
2023/04/20 13:56:16;;;;;;;20.33;8.70;;;;;;;;;;4986054;28;20523;-83
2023/04/20 13:58:44;;;;;;;20.70;8.07;;;;;;;;;;4985399;28;20964;-84
2023/04/20 14:01:18;;;;;;;18.50;9.10;;;;;;;;;;4984727;28;20429;-85
2023/04/20 14:03:46;;;;;;;17.27;8.77;;;;;;;;;;4980303;28;21015;-84
2023/04/20 14:06:14;;;;;;;16.67;8.82;;;;;;;;;;4974230;28;20430;-85
2023/04/20 14:08:42;;;;;;;17.55;8.85;;;;;;;;;;4991909;28;20448;-84
2023/04/20 14:11:10;;;;;;;18.73;9.43;;;;;;;;;;4971919;28;20424;-83
2023/04/20 14:13:43;;;;;;;20.15;9.35;;;;;;;;;;4993261;28;20434;-84
2023/04/20 14:16:15;;;;;;;15.65;8.52;;;;;;;;;;4994438;28;21102;-84
2023/04/20 14:18:45;;;;;;;18.27;9.10;;;;;;;;;;4973923;28;21222;-84
2023/04/20 14:21:17;;;;;;;20.45;9.02;;;;;;;;;;4982429;28;20453;-84
2023/04/20 14:23:45;;;;;;;18.42;8.73;;;;;;;;;;4970452;28;20430;-84
2023/04/20 14:26:13;;;;;;;16.02;9.00;;;;;;;;;;4979070;28;20429;-85
2023/04/20 14:28:46;;;;;;;19.45;9.30;;;;;;;;;;4966564;28;20426;-86
2023/04/20 14:31:14;;;;;;;19.42;9.50;;;;;;;;;;4982948;28;21214;-85
2023/04/20 14:33:43;;;;;;;19.63;8.98;;;;;;;;;;4992948;28;20436;-85
2023/04/20 14:36:12;;;;;;;18.87;9.20;;;;;;;;;;4985857;28;20525;-84
2023/04/20 14:38:40;;;;;;;19.23;9.25;;;;;;;;;;4973354;28;20460;-84
2023/04/20 14:41:08;;;;;;;20.70;9.45;;;;;;;;;;4988665;28;20440;-84
2023/04/20 14:43:37;;;;;;;21.70;9.45;;;;;;;;;;4988676;28;20951;-84
2023/04/20 14:46:08;;;;;;;19.38;9.25;;;;;;;;;;4987141;28;20426;-84
2023/04/20 14:48:37;;;;;;;16.15;9.18;;;;;;;;;;4974069;28;21122;-84
2023/04/20 14:51:05;;;;;;;22.47;9.63;;;;;;;;;;4992003;28;20442;-84
2023/04/20 14:53:34;;;;;;;18.17;9.10;;;;;;;;;;4990286;28;20430;-84